Time;durP1;ratioP1;P1;durP2;ratioP2;P2;SDS_P1;SDS_P2;PMS_P1;PMS_P2;Temp;Humidity;BMP_temperature;BMP_pressure;BME280_temperature;BME280_humidity;BME280_pressure;Samples;Min_cycle;Max_cycle;Signal;HPM_P1;HPM_P2
2023/05/11 00:02:32;;;;;;;;;;;;;;;26.55;43.88;94086.06;4900408;29;7085;-62
2023/05/11 00:05:27;;;;;;;;;;;;;;;26.55;43.43;94089.56;4913519;29;9003;-62
2023/05/11 00:08:08;;;;;;;;;;;;;;;26.58;43.33;94077.47;4920093;29;9788;-62
2023/05/11 00:14:12;;;;;;;;;;;;;;;26.57;43.66;94076.00;4935597;29;8955;-62
2023/05/11 00:16:47;;;;;;;;;;;;;;;26.55;43.52;94077.78;4918021;29;7355;-62
2023/05/11 00:19:23;;;;;;;;;;;;;;;26.56;43.15;94074.50;4920725;29;7316;-62
2023/05/11 00:22:27;;;;;;;;;;;;;;;26.54;43.29;94068.75;4940999;28;7423;-62
2023/05/11 00:24:53;;;;;;;;;;;;;;;26.53;43.38;94072.03;4934188;29;8980;-62
2023/05/11 00:27:35;;;;;;;;;;;;;;;26.55;43.48;94075.03;4919443;29;9501;-62
2023/05/11 00:30:00;;;;;;;;;;;;;;;26.54;42.92;94066.00;4917802;29;9152;-62
2023/05/11 00:32:31;;;;;;;;;;;;;;;26.56;42.86;94068.22;4918522;29;9262;-62
2023/05/11 00:35:09;;;;;;;;;;;;;;;26.55;43.47;94075.78;4919760;29;7223;-62
2023/05/11 00:37:37;;;;;;;;;;;;;;;26.54;43.32;94070.75;4919839;28;9127;-62
2023/05/11 00:40:15;;;;;;;;;;;;;;;26.53;43.14;94075.56;4954387;28;7317;-62
2023/05/11 00:42:51;;;;;;;;;;;;;;;26.53;43.35;94061.00;4953299;28;9138;-62
2023/05/11 00:45:53;;;;;;;;;;;;;;;26.50;43.19;94059.28;4953248;28;8221;-62
2023/05/11 00:48:32;;;;;;;;;;;;;;;26.48;43.23;94065.34;4913506;29;7282;-62
2023/05/11 00:51:09;;;;;;;;;;;;;;;26.50;42.96;94064.81;4899865;29;8763;-62
2023/05/11 00:53:36;;;;;;;;;;;;;;;26.48;43.26;94062.59;4896437;29;8243;-62
2023/05/11 00:56:05;;;;;;;;;;;;;;;26.48;43.67;94061.84;4938633;28;7301;-62
2023/05/11 00:58:51;;;;;;;;;;;;;;;26.46;43.08;94064.38;4989138;28;7093;-62
2023/05/11 01:01:52;;;;;;;;;;;;;;;26.48;43.52;94068.09;4991472;28;7289;-62
2023/05/11 01:04:19;;;;;;;;;;;;;;;26.50;43.60;94070.31;4899498;29;7059;-62
2023/05/11 01:07:11;;;;;;;;;;;;;;;26.50;43.33;94070.31;4897867;29;7054;-62
2023/05/11 01:10:32;;;;;;;;;;;;;;;26.50;43.61;94067.56;4906061;29;8289;-62
2023/05/11 01:13:28;;;;;;;;;;;;;;;26.49;43.67;94063.34;4925734;29;7694;-62
2023/05/11 01:16:45;;;;;;;;;;;;;;;26.46;43.33;94064.38;4906514;29;9264;-62
2023/05/11 01:20:03;;;;;;;;;;;;;;;26.45;43.66;94063.63;4914351;29;7269;-62
2023/05/11 01:23:19;;;;;;;;;;;;;;;26.45;43.82;94068.38;4893783;29;9082;-62
2023/05/11 01:26:10;;;;;;;;;;;;;;;26.42;43.74;94064.69;4876647;29;8978;-62
2023/05/11 01:29:02;;;;;;;;;;;;;;;26.40;43.96;94063.72;4863694;29;7063;-62
2023/05/11 01:31:33;;;;;;;;;;;;;;;26.41;43.43;94065.19;4871012;29;9470;-62
2023/05/11 01:34:18;;;;;;;;;;;;;;;26.41;43.34;94065.19;4870410;29;9647;-62
2023/05/11 01:37:14;;;;;;;;;;;;;;;26.39;43.58;94057.44;4871150;29;7281;-62
2023/05/11 01:40:28;;;;;;;;;;;;;;;26.39;43.20;94054.69;4990589;28;9168;-62
2023/05/11 01:43:23;;;;;;;;;;;;;;;26.39;43.52;94053.94;4959635;28;7439;-62
2023/05/11 01:46:00;;;;;;;;;;;;;;;26.36;43.96;94050.22;4913744;29;7382;-62
2023/05/11 01:48:34;;;;;;;;;;;;;;;26.37;43.37;94053.72;4926020;28;8948;-62
2023/05/11 01:51:04;;;;;;;;;;;;;;;26.37;43.81;94064.75;4926775;29;7133;-63
2023/05/11 01:53:35;;;;;;;;;;;;;;;26.36;43.23;94061.25;4913976;29;7029;-62
2023/05/11 01:56:04;;;;;;;;;;;;;;;26.37;43.17;94056.47;4930776;28;9035;-63
2023/05/11 01:58:35;;;;;;;;;;;;;;;26.35;43.50;94059.78;4948958;28;8023;-62
2023/05/11 02:01:05;;;;;;;;;;;;;;;26.38;43.58;94057.97;4949949;28;8708;-62
2023/05/11 02:03:37;;;;;;;;;;;;;;;26.35;43.13;94054.25;4949672;28;7032;-62
2023/05/11 02:06:25;;;;;;;;;;;;;;;26.36;43.53;94050.22;4952115;28;9296;-63
2023/05/11 02:08:58;;;;;;;;;;;;;;;26.37;42.81;94056.47;4951725;28;7434;-62
2023/05/11 02:11:48;;;;;;;;;;;;;;;26.34;43.22;94058.28;4953153;28;9543;-62
2023/05/11 02:14:35;;;;;;;;;;;;;;;26.32;43.62;94049.78;4936863;28;9223;-62
2023/05/11 02:17:14;;;;;;;;;;;;;;;26.29;43.30;94044.56;4951589;28;7282;-62
2023/05/11 02:19:45;;;;;;;;;;;;;;;26.29;43.84;94050.09;4946089;28;7210;-62
2023/05/11 02:22:12;;;;;;;;;;;;;;;26.29;43.18;94047.34;4951248;28;7265;-62
2023/05/11 02:24:42;;;;;;;;;;;;;;;26.27;43.43;94044.34;5005550;28;9211;-62
2023/05/11 02:27:35;;;;;;;;;;;;;;;26.29;44.02;94050.09;5014079;28;7155;-62
2023/05/11 02:30:34;;;;;;;;;;;;;;;26.29;43.63;94050.84;5005307;28;7018;-62
2023/05/11 02:33:23;;;;;;;;;;;;;;;26.28;43.82;94046.59;5018889;28;8597;-62
2023/05/11 02:36:05;;;;;;;;;;;;;;;26.28;44.13;94045.84;5003791;28;8628;-62
2023/05/11 02:38:37;;;;;;;;;;;;;;;26.28;43.81;94040.31;5002514;28;7158;-62
2023/05/11 02:41:10;;;;;;;;;;;;;;;26.26;43.43;94045.63;5004150;28;7152;-62
2023/05/11 02:43:44;;;;;;;;;;;;;;;26.25;42.98;94044.13;5023721;28;7206;-62
2023/05/11 02:46:19;;;;;;;;;;;;;;;26.26;43.28;94038.09;4999841;28;7122;-62
2023/05/11 02:48:53;;;;;;;;;;;;;;;26.27;43.28;94036.09;5001231;28;7271;-62
2023/05/11 02:51:29;;;;;;;;;;;;;;;26.27;43.13;94041.59;5024244;28;8844;-62
2023/05/11 02:53:58;;;;;;;;;;;;;;;26.28;43.46;94037.56;5025029;28;7047;-62
2023/05/11 02:56:28;;;;;;;;;;;;;;;26.28;43.31;94037.56;5004195;28;7107;-62
2023/05/11 02:59:11;;;;;;;;;;;;;;;26.25;43.11;94033.88;5021744;28;7290;-62
2023/05/11 03:01:56;;;;;;;;;;;;;;;26.22;43.71;94026.63;5003911;28;7255;-62
2023/05/11 03:04:34;;;;;;;;;;;;;;;26.21;43.47;94027.16;5005404;28;9017;-62
2023/05/11 03:07:26;;;;;;;;;;;;;;;26.24;43.32;94032.38;5001206;28;7639;-62
2023/05/11 03:09:54;;;;;;;;;;;;;;;26.22;43.90;94029.38;5002214;28;8941;-63
2023/05/11 03:12:38;;;;;;;;;;;;;;;26.24;43.63;94032.38;5001497;28;7255;-62
2023/05/11 03:15:11;;;;;;;;;;;;;;;26.24;43.94;94026.84;5010343;28;7046;-62
2023/05/11 03:18:10;;;;;;;;;;;;;;;26.24;43.96;94026.84;4991632;28;7001;-62
2023/05/11 03:21:07;;;;;;;;;;;;;;;26.21;43.22;94027.16;5004840;28;7220;-62
2023/05/11 03:23:44;;;;;;;;;;;;;;;26.21;43.64;94021.66;5021657;28;7220;-62
2023/05/11 03:26:22;;;;;;;;;;;;;;;26.17;43.66;94025.44;5018493;28;7310;-62
2023/05/11 03:29:19;;;;;;;;;;;;;;;26.18;43.25;94028.94;4997149;28;7289;-62
2023/05/11 03:32:23;;;;;;;;;;;;;;;26.20;43.63;94017.38;5007860;28;7792;-62
2023/05/11 03:34:53;;;;;;;;;;;;;;;26.20;43.33;94022.91;4901079;29;9148;-62
2023/05/11 03:37:33;;;;;;;;;;;;;;;26.22;43.61;94020.38;4915028;29;9467;-62
2023/05/11 03:40:34;;;;;;;;;;;;;;;26.24;43.73;94017.81;4914361;29;9197;-62
2023/05/11 03:43:03;;;;;;;;;;;;;;;26.21;43.78;94016.84;4914125;29;7307;-63
2023/05/11 03:46:07;;;;;;;;;;;;;;;26.24;43.72;94017.81;4902898;29;7261;-62
2023/05/11 03:49:26;;;;;;;;;;;;;;;26.22;43.45;94012.84;4911188;29;9106;-62
2023/05/11 03:52:28;;;;;;;;;;;;;;;26.21;43.81;94021.66;4917075;29;7228;-62
2023/05/11 03:55:06;;;;;;;;;;;;;;;26.19;43.97;94013.88;4935161;28;7108;-62
2023/05/11 03:57:40;;;;;;;;;;;;;;;26.17;43.36;94014.41;4929271;29;8760;-62
2023/05/11 04:00:30;;;;;;;;;;;;;;;26.21;43.23;94022.38;4924908;29;7198;-62
2023/05/11 04:03:11;;;;;;;;;;;;;;;26.19;43.31;94018.66;4920655;29;7064;-62
2023/05/11 04:06:04;;;;;;;;;;;;;;;26.18;43.64;94017.91;4950521;28;8996;-62
2023/05/11 04:09:06;;;;;;;;;;;;;;;26.21;43.15;94018.88;4954500;28;7048;-62
2023/05/11 04:11:52;;;;;;;;;;;;;;;26.19;43.38;94013.88;4954458;28;8986;-62
2023/05/11 04:14:29;;;;;;;;;;;;;;;26.19;43.73;94015.91;4967885;28;7236;-62
2023/05/11 04:17:04;;;;;;;;;;;;;;;26.16;43.71;94012.19;4957863;28;9104;-62
2023/05/11 04:20:02;;;;;;;;;;;;;;;26.15;43.75;94007.94;4946347;28;9128;-62
2023/05/11 04:22:50;;;;;;;;;;;;;;;26.13;43.92;93997.44;4944175;28;7034;-62
2023/05/11 04:25:16;;;;;;;;;;;;;;;26.10;43.38;94001.22;4940123;28;7171;-62
2023/05/11 04:28:08;;;;;;;;;;;;;;;26.15;43.22;94002.41;4939318;28;7262;-62
2023/05/11 04:30:56;;;;;;;;;;;;;;;26.12;43.64;94003.47;4967537;28;7360;-62
2023/05/11 04:33:48;;;;;;;;;;;;;;;26.13;44.06;94005.69;4969264;28;8276;-62
2023/05/11 04:36:32;;;;;;;;;;;;;;;26.13;43.81;93999.44;4973297;28;7032;-61
2023/05/11 04:39:18;;;;;;;;;;;;;;;26.14;43.48;94004.41;4989635;28;7290;-61
2023/05/11 04:41:45;;;;;;;;;;;;;;;26.14;43.37;94012.69;4966769;28;7081;-61
2023/05/11 04:44:53;;;;;;;;;;;;;;;26.13;43.64;94002.94;4974523;28;9464;-61
2023/05/11 04:47:24;;;;;;;;;;;;;;;26.11;43.61;94011.00;4971882;28;9013;-61
2023/05/11 04:50:21;;;;;;;;;;;;;;;26.12;43.91;94011.75;4963592;28;7219;-61
2023/05/11 04:52:57;;;;;;;;;;;;;;;26.13;43.32;94015.97;4968803;28;7398;-61
2023/05/11 04:55:23;;;;;;;;;;;;;;;26.10;43.17;94017.00;4975133;28;7329;-61
2023/05/11 04:57:50;;;;;;;;;;;;;;;26.06;44.07;94006.28;4974026;28;7032;-62
2023/05/11 05:01:03;;;;;;;;;;;;;;;26.09;43.62;94016.28;5002807;28;8891;-62
2023/05/11 05:03:56;;;;;;;;;;;;;;;26.08;43.66;94014.78;5013030;28;7139;-62
2023/05/11 05:06:33;;;;;;;;;;;;;;;26.08;43.98;94017.53;5002894;28;9427;-63
2023/05/11 05:09:33;;;;;;;;;;;;;;;26.06;44.28;94014.53;5023331;28;9002;-62
2023/05/11 05:12:01;;;;;;;;;;;;;;;26.06;43.81;94013.78;4968777;28;7163;-62
2023/05/11 05:14:28;;;;;;;;;;;;;;;26.02;43.79;94013.34;4981484;28;9494;-62
2023/05/11 05:17:42;;;;;;;;;;;;;;;26.04;43.97;94016.31;4990880;28;9273;-62
2023/05/11 05:20:08;;;;;;;;;;;;;;;26.05;44.04;94024.09;4988828;28;7019;-63
2023/05/11 05:22:54;;;;;;;;;;;;;;;26.03;44.43;94018.34;4988890;28;7288;-63
2023/05/11 05:25:36;;;;;;;;;;;;;;;26.06;43.88;94024.81;4986218;28;9039;-62
2023/05/11 05:28:37;;;;;;;;;;;;;;;26.09;43.71;94021.81;4989116;28;9164;-62
2023/05/11 05:31:15;;;;;;;;;;;;;;;26.13;43.62;94022.25;4970226;28;7050;-62
2023/05/11 05:33:56;;;;;;;;;;;;;;;26.16;43.81;94023.94;4972754;28;9120;-62
2023/05/11 05:36:47;;;;;;;;;;;;;;;26.21;43.44;94016.13;4991538;28;8624;-62
2023/05/11 05:39:19;;;;;;;;;;;;;;;26.21;43.10;94030.63;4982107;28;7035;-62
2023/05/11 05:42:02;;;;;;;;;;;;;;;26.25;43.08;94025.59;4965195;28;7031;-62
2023/05/11 05:44:36;;;;;;;;;;;;;;;26.25;44.04;94022.84;4985263;28;7199;-61
2023/05/11 05:47:08;;;;;;;;;;;;;;;26.26;43.42;94023.56;4990935;28;7467;-61
2023/05/11 05:49:40;;;;;;;;;;;;;;;26.27;44.00;94020.28;5005367;28;9854;-61
2023/05/11 05:52:22;;;;;;;;;;;;;;;26.28;43.93;94021.03;5002589;28;9029;-61
2023/05/11 05:54:50;;;;;;;;;;;;;;;26.29;43.69;94022.53;5008696;28;8989;-61
2023/05/11 05:58:02;;;;;;;;;;;;;;;26.30;43.93;94024.00;5009849;28;7075;-61
2023/05/11 06:00:39;;;;;;;;;;;;;;;26.29;43.93;94020.50;5010179;28;7297;-61
2023/05/11 06:03:17;;;;;;;;;;;;;;;26.31;43.74;94019.97;5006495;28;9104;-61
2023/05/11 06:05:49;;;;;;;;;;;;;;;26.27;43.88;94014.78;5004997;28;8839;-61
2023/05/11 06:08:23;;;;;;;;;;;;;;;26.30;43.44;94030.25;5005491;28;7278;-61
2023/05/11 06:11:03;;;;;;;;;;;;;;;26.29;43.90;94022.53;5017124;28;7048;-61
2023/05/11 06:13:30;;;;;;;;;;;;;;;26.28;43.28;94021.03;5020918;28;7114;-61
2023/05/11 06:16:05;;;;;;;;;;;;;;;26.33;43.10;94028.47;5003934;28;8549;-61
2023/05/11 06:18:35;;;;;;;;;;;;;;;26.31;42.91;94017.97;5022464;28;9144;-62
2023/05/11 06:21:10;;;;;;;;;;;;;;;26.33;43.52;94022.97;5003045;28;9365;-62
2023/05/11 06:23:49;;;;;;;;;;;;;;;26.41;43.58;94029.34;5022992;28;9468;-62
2023/05/11 06:26:15;;;;;;;;;;;;;;;26.47;43.16;94022.47;5005740;28;7047;-62
2023/05/11 06:28:45;;;;;;;;;;;;;;;26.53;42.56;94019.63;5003730;28;6859;-62
2023/05/11 06:31:28;;;;;;;;;;;;;;;26.62;42.95;94017.22;5008903;28;9074;-62
2023/05/11 06:34:01;;;;;;;;;;;;;;;26.65;42.90;94018.19;5014331;28;9306;-62
2023/05/11 06:36:37;;;;;;;;;;;;;;;26.74;43.23;94015.06;5021887;28;7058;-62
2023/05/11 06:39:21;;;;;;;;;;;;;;;26.81;43.17;94019.97;5027565;28;7275;-62
2023/05/11 06:42:36;;;;;;;;;;;;;;;26.87;42.87;94017.84;5028315;28;9073;-62
2023/05/11 06:45:20;;;;;;;;;;;;;;;26.94;42.98;94008.19;5016172;28;8706;-62
2023/05/11 06:48:14;;;;;;;;;;;;;;;26.99;42.65;94001.84;5001562;28;7058;-63
2023/05/11 06:51:28;;;;;;;;;;;;;;;27.03;42.67;94005.78;4915766;29;7188;-62
2023/05/11 06:53:55;;;;;;;;;;;;;;;27.07;42.36;94002.69;4913595;29;7219;-62
2023/05/11 06:56:23;;;;;;;;;;;;;;;27.08;42.37;93996.63;4908791;29;9030;-62
2023/05/11 06:58:57;;;;;;;;;;;;;;;27.12;42.71;93994.28;4914214;29;7256;-62
2023/05/11 07:01:27;;;;;;;;;;;;;;;27.12;42.39;94002.56;4891858;29;9017;-62
2023/05/11 07:03:55;;;;;;;;;;;;;;;27.15;42.59;94003.53;4906191;29;7078;-62
2023/05/11 07:06:21;;;;;;;;;;;;;;;27.16;42.60;94007.78;4888626;29;9366;-62
2023/05/11 07:08:50;;;;;;;;;;;;;;;27.17;42.49;94007.25;4910702;29;9075;-62
2023/05/11 07:12:06;;;;;;;;;;;;;;;27.15;42.45;94009.81;4898267;29;8853;-62
2023/05/11 07:14:41;;;;;;;;;;;;;;;27.14;42.79;94010.34;4913905;29;7216;-62
2023/05/11 07:17:16;;;;;;;;;;;;;;;27.15;42.60;94012.56;4898766;29;8467;-62
2023/05/11 07:19:42;;;;;;;;;;;;;;;27.14;42.41;94013.84;4898413;29;7206;-62
2023/05/11 07:22:22;;;;;;;;;;;;;;;27.14;42.23;94008.31;4898753;29;9730;-62
2023/05/11 07:24:50;;;;;;;;;;;;;;;27.13;42.18;94012.34;4895261;29;9453;-62
2023/05/11 07:27:16;;;;;;;;;;;;;;;27.13;42.38;94006.81;4919004;28;7260;-61
2023/05/11 07:29:43;;;;;;;;;;;;;;;27.16;42.29;94014.06;4966585;28;8750;-61
2023/05/11 07:32:17;;;;;;;;;;;;;;;27.15;42.19;94012.56;5017906;28;7300;-62
2023/05/11 07:34:54;;;;;;;;;;;;;;;27.14;42.38;94013.84;5011720;28;7303;-61
2023/05/11 07:37:24;;;;;;;;;;;;;;;27.14;41.82;94019.38;5016812;28;7377;-61
2023/05/11 07:39:54;;;;;;;;;;;;;;;27.12;42.29;94008.09;5024528;28;9469;-61
2023/05/11 07:42:31;;;;;;;;;;;;;;;27.09;42.20;94014.69;5014712;28;9170;-62
2023/05/11 07:44:57;;;;;;;;;;;;;;;27.11;43.05;94014.16;5018242;28;8182;-62
2023/05/11 07:47:30;;;;;;;;;;;;;;;27.11;42.50;94008.63;5026577;28;7181;-62
2023/05/11 07:50:04;;;;;;;;;;;;;;;27.09;42.56;94011.94;5016398;28;9420;-62
2023/05/11 07:52:39;;;;;;;;;;;;;;;27.08;42.38;94009.69;5022068;28;7093;-62
2023/05/11 07:55:18;;;;;;;;;;;;;;;27.08;42.12;94017.97;5012564;28;9126;-62
2023/05/11 07:57:58;;;;;;;;;;;;;;;27.08;42.54;94013.19;5021281;28;9164;-62
2023/05/11 08:00:35;;;;;;;;;;;;;;;27.06;42.50;94012.22;5033710;28;7255;-62
2023/05/11 08:03:07;;;;;;;;;;;;;;;27.05;42.46;94017.03;5016944;28;9354;-62
2023/05/11 08:05:36;;;;;;;;;;;;;;;27.04;42.46;94000.97;5015772;28;7337;-63
2023/05/11 08:08:05;;;;;;;;;;;;;;;27.04;43.10;94003.72;5031485;28;7108;-62
2023/05/11 08:10:31;;;;;;;;;;;;;;;27.02;42.51;94006.28;5006450;28;9105;-62
2023/05/11 08:12:59;;;;;;;;;;;;;;;27.00;42.72;94003.31;5023906;28;9406;-61
2023/05/11 08:15:28;;;;;;;;;;;;;;;26.99;42.78;94001.84;5020790;28;7308;-62
2023/05/11 08:18:10;;;;;;;;;;;;;;;26.99;42.74;94004.59;5021575;28;7688;-62
2023/05/11 08:20:59;;;;;;;;;;;;;;;27.00;42.90;94003.31;5010999;28;7280;-62
2023/05/11 08:23:34;;;;;;;;;;;;;;;26.96;42.76;94000.88;5004322;28;9403;-62
2023/05/11 08:26:03;;;;;;;;;;;;;;;26.98;43.21;94003.09;5024841;28;7809;-62
2023/05/11 08:28:39;;;;;;;;;;;;;;;26.96;42.75;94006.41;5006240;28;8338;-62
2023/05/11 08:31:17;;;;;;;;;;;;;;;26.95;42.47;93998.66;5031343;28;7112;-62
2023/05/11 08:34:10;;;;;;;;;;;;;;;26.95;42.81;94007.66;5018606;28;7717;-62
2023/05/11 08:36:43;;;;;;;;;;;;;;;26.94;42.86;94008.19;5002573;28;8613;-62
2023/05/11 08:39:10;;;;;;;;;;;;;;;26.95;42.38;94001.41;5018461;28;7636;-63
2023/05/11 08:41:38;;;;;;;;;;;;;;;26.96;42.89;93995.34;5028968;28;9133;-62
2023/05/11 08:44:13;;;;;;;;;;;;;;;26.97;42.67;94007.88;5009402;28;9133;-62
2023/05/11 08:46:46;;;;;;;;;;;;;;;26.95;42.89;93993.84;4999799;28;7159;-62
2023/05/11 08:49:23;;;;;;;;;;;;;;;26.95;43.10;93998.66;5017369;28;7217;-62
2023/05/11 08:52:09;;;;;;;;;;;;;;;26.94;42.76;93997.16;5003924;28;9009;-62
2023/05/11 08:54:37;;;;;;;;;;;;;;;26.95;42.86;93991.09;5024510;28;9320;-62
2023/05/11 08:57:06;;;;;;;;;;;;;;;26.93;42.36;93988.13;5010260;28;7365;-62
2023/05/11 08:59:41;;;;;;;;;;;;;;;26.95;42.64;93993.13;5028948;28;7122;-61
2023/05/11 09:02:18;;;;;;;;;;;;;;;26.96;42.41;93994.59;5030410;28;7266;-62
2023/05/11 09:04:45;;;;;;;;;;;;;;;26.96;42.93;93992.59;5012116;28;7564;-62
2023/05/11 09:07:16;;;;;;;;;;;;;;;26.94;43.18;93997.16;5006580;28;7432;-62
2023/05/11 09:09:55;;;;;;;;;;;;;;;26.92;42.52;93999.69;5011659;28;7055;-62
2023/05/11 09:12:58;;;;;;;;;;;;;;;26.89;42.83;93996.72;5008773;28;7163;-62
2023/05/11 09:15:31;;;;;;;;;;;;;;;26.88;42.44;93997.25;5008246;28;7371;-62
2023/05/11 09:18:32;;;;;;;;;;;;;;;26.86;43.03;93995.00;5022387;28;7042;-62
2023/05/11 09:21:01;;;;;;;;;;;;;;;26.84;43.07;93988.53;5011563;28;9324;-62
2023/05/11 09:24:06;;;;;;;;;;;;;;;26.84;42.97;93994.03;5006141;28;8721;-62
2023/05/11 09:26:35;;;;;;;;;;;;;;;26.82;42.67;93980.78;5027080;28;9369;-63
2023/05/11 09:29:03;;;;;;;;;;;;;;;26.85;43.19;93984.50;5019969;28;8762;-62
2023/05/11 09:31:46;;;;;;;;;;;;;;;26.83;43.46;93978.78;5005789;28;9490;-62
2023/05/11 09:34:25;;;;;;;;;;;;;;;26.86;42.91;93986.00;5005705;28;9085;-62
2023/05/11 09:37:32;;;;;;;;;;;;;;;26.85;42.76;93982.50;5028318;28;7037;-62
2023/05/11 09:40:09;;;;;;;;;;;;;;;26.85;42.80;93979.75;4918527;29;9333;-62
2023/05/11 09:42:35;;;;;;;;;;;;;;;26.84;42.96;93983.00;4917245;28;9089;-62
2023/05/11 09:45:03;;;;;;;;;;;;;;;26.80;42.75;93977.06;4925999;28;9080;-61
2023/05/11 09:47:39;;;;;;;;;;;;;;;26.82;43.05;93982.78;4921609;29;7062;-61
2023/05/11 09:50:16;;;;;;;;;;;;;;;26.81;42.76;93986.84;4932460;28;7506;-61
2023/05/11 09:52:57;;;;;;;;;;;;;;;26.83;42.85;93981.53;4919965;29;9097;-61
2023/05/11 09:56:00;;;;;;;;;;;;;;;26.82;43.16;93980.78;4933212;28;8772;-61
2023/05/11 09:59:00;;;;;;;;;;;;;;;26.77;43.34;93976.09;4882420;29;7295;-61
2023/05/11 10:01:38;;;;;;;;;;;;;;;26.78;43.35;93968.56;4875571;29;7238;-61
2023/05/11 10:04:07;;;;;;;;;;;;;;;26.78;42.92;93968.56;4877069;29;7035;-62
2023/05/11 10:06:47;;;;;;;;;;;;;;;26.77;42.93;93962.31;4892186;29;7030;-62
2023/05/11 10:09:17;;;;;;;;;;;;;;;26.76;43.34;93960.84;4899040;29;9388;-61
2023/05/11 10:12:01;;;;;;;;;;;;;;;26.74;43.58;93963.38;4979283;28;8209;-61
2023/05/11 10:14:32;;;;;;;;;;;;;;;26.75;43.88;93964.84;4978148;28;8495;-62
2023/05/11 10:17:01;;;;;;;;;;;;;;;26.77;43.96;93972.63;4971339;28;7108;-61
2023/05/11 10:19:28;;;;;;;;;;;;;;;26.77;44.27;93962.31;4978940;28;8946;-61
2023/05/11 10:21:54;;;;;;;;;;;;;;;26.78;43.88;93963.06;4970702;28;7294;-61
2023/05/11 10:24:58;;;;;;;;;;;;;;;26.77;43.96;93958.81;4973972;28;9040;-61
2023/05/11 10:27:38;;;;;;;;;;;;;;;26.77;44.05;93947.78;4910229;29;7895;-61
2023/05/11 10:30:23;;;;;;;;;;;;;;;26.78;44.20;93957.53;4911084;29;9347;-61
2023/05/11 10:32:51;;;;;;;;;;;;;;;26.77;44.17;93950.53;4913888;29;9125;-62
2023/05/11 10:36:07;;;;;;;;;;;;;;;26.78;44.60;93947.25;4927394;28;9139;-62
2023/05/11 10:38:36;;;;;;;;;;;;;;;26.77;44.48;93947.78;4864847;29;8759;-61
2023/05/11 10:41:38;;;;;;;;;;;;;;;26.77;44.72;93945.75;4878315;29;7040;-61
2023/05/11 10:48:11;;;;;;;;;;;;;;;26.78;44.90;93935.47;4879920;29;6805;-62
2023/05/11 10:51:21;;;;;;;;;;;;;;;26.78;44.78;93946.50;4881918;29;9468;-61
2023/05/11 10:54:25;;;;;;;;;;;;;;;26.78;44.84;93944.50;4891414;29;8644;-62
2023/05/11 10:57:11;;;;;;;;;;;;;;;26.78;44.58;93944.50;4876112;29;6875;-61
2023/05/11 10:59:57;;;;;;;;;;;;;;;26.78;44.48;93941.72;4881128;29;9089;-62
2023/05/11 11:02:51;;;;;;;;;;;;;;;26.79;45.20;93936.97;4898139;28;7462;-62
2023/05/11 11:05:43;;;;;;;;;;;;;;;26.79;45.17;93925.94;4938027;28;8995;-61
2023/05/11 11:08:19;;;;;;;;;;;;;;;26.79;45.14;93923.16;4936276;29;9371;-61
2023/05/11 11:10:51;;;;;;;;;;;;;;;26.77;44.91;93909.88;4944985;28;7278;-62
2023/05/11 11:13:28;;;;;;;;;;;;;;;26.80;45.06;93911.59;4946733;28;7321;-62
2023/05/11 11:16:24;;;;;;;;;;;;;;;26.82;45.30;93919.34;5021939;28;7029;-63
2023/05/11 11:19:36;;;;;;;;;;;;;;;26.82;45.11;93919.34;5023132;28;7255;-62
2023/05/11 11:22:37;;;;;;;;;;;;;;;26.84;44.96;93911.25;5021991;28;9436;-62
2023/05/11 11:25:14;;;;;;;;;;;;;;;26.81;45.16;93917.84;5015261;28;9319;-62
2023/05/11 11:27:43;;;;;;;;;;;;;;;26.83;44.95;93904.28;5004261;28;7252;-62
2023/05/11 11:30:29;;;;;;;;;;;;;;;26.84;45.11;93905.75;5003999;28;9066;-63
2023/05/11 11:33:38;;;;;;;;;;;;;;;26.82;45.06;93911.81;5037832;28;7501;-63
2023/05/11 11:39:39;;;;;;;;;;;;;;;26.84;44.87;93914.03;5021563;28;7624;-62
2023/05/11 11:42:13;;;;;;;;;;;;;;;26.83;44.54;93909.78;5015114;28;9030;-62
2023/05/11 11:44:40;;;;;;;;;;;;;;;26.81;44.82;93909.59;5017596;28;9102;-63
2023/05/11 11:47:12;;;;;;;;;;;;;;;26.83;44.35;93909.78;5015113;28;7143;-62
2023/05/11 11:49:43;;;;;;;;;;;;;;;26.84;44.44;93916.78;5019298;28;7047;-62
2023/05/11 11:52:34;;;;;;;;;;;;;;;26.84;44.54;93911.25;5021652;28;7464;-62
2023/05/11 11:55:02;;;;;;;;;;;;;;;26.82;44.57;93928.34;5024776;28;9320;-62
2023/05/11 11:57:28;;;;;;;;;;;;;;;26.83;44.48;93927.09;5029277;28;7127;-62
2023/05/11 11:59:55;;;;;;;;;;;;;;;26.82;44.36;93920.09;5026274;28;7104;-62
2023/05/11 12:02:24;;;;;;;;;;;;;;;26.81;44.51;93920.63;5031801;28;9116;-62
2023/05/11 12:05:00;;;;;;;;;;;;;;;26.81;44.30;93917.84;5025512;28;7109;-62
2023/05/11 12:07:35;;;;;;;;;;;;;;;26.83;44.32;93912.56;5045817;28;7503;-62
2023/05/11 12:10:04;;;;;;;;;;;;;;;26.86;44.21;93914.25;5043151;28;7328;-62
2023/05/11 12:12:30;;;;;;;;;;;;;;;26.87;44.13;93910.22;5037915;28;9377;-63
2023/05/11 12:14:58;;;;;;;;;;;;;;;26.85;43.66;93910.00;5025572;28;7368;-64
2023/05/11 12:17:29;;;;;;;;;;;;;;;26.81;44.10;93909.59;5040524;28;7256;-64
2023/05/11 12:20:13;;;;;;;;;;;;;;;26.79;44.26;93912.88;5046980;28;7218;-63
2023/05/11 12:22:40;;;;;;;;;;;;;;;26.80;44.44;93911.59;5046930;28;8975;-63
2023/05/11 12:25:07;;;;;;;;;;;;;;;26.82;44.60;93913.81;5041665;28;7293;-63
2023/05/11 12:27:33;;;;;;;;;;;;;;;26.80;44.10;93913.59;5040573;28;8007;-63
2023/05/11 12:30:00;;;;;;;;;;;;;;;26.80;44.18;93906.06;5025693;28;8911;-63
2023/05/11 12:32:30;;;;;;;;;;;;;;;26.81;43.74;93909.59;5024994;28;9328;-63
2023/05/11 12:35:01;;;;;;;;;;;;;;;26.81;44.30;93906.81;5035753;28;7140;-62
2023/05/11 12:37:31;;;;;;;;;;;;;;;26.83;44.21;93907.03;5023615;28;9013;-62
2023/05/11 12:39:59;;;;;;;;;;;;;;;26.80;44.49;93902.56;5025868;28;9293;-62
2023/05/11 12:42:26;;;;;;;;;;;;;;;26.80;44.64;93897.78;5041181;28;7311;-62
2023/05/11 12:44:53;;;;;;;;;;;;;;;26.80;44.26;93905.31;5044000;28;9044;-62
2023/05/11 12:47:19;;;;;;;;;;;;;;;26.81;44.40;93906.81;5045465;28;7226;-62
2023/05/11 12:49:54;;;;;;;;;;;;;;;26.83;44.09;93910.53;5046571;28;7131;-62
2023/05/11 12:52:23;;;;;;;;;;;;;;;26.82;44.45;93911.06;5037564;28;9237;-63
2023/05/11 12:54:57;;;;;;;;;;;;;;;26.83;44.33;93898.75;5040108;28;7117;-61
2023/05/11 12:57:23;;;;;;;;;;;;;;;26.80;44.49;93897.03;5037606;28;7283;-62
2023/05/11 13:00:14;;;;;;;;;;;;;;;26.80;44.48;93895.03;5038358;28;9038;-62
2023/05/11 13:02:53;;;;;;;;;;;;;;;26.84;43.84;93894.72;5036247;28;8634;-62
2023/05/11 13:05:25;;;;;;;;;;;;;;;26.84;43.91;93886.44;5030818;28;7889;-61
2023/05/11 13:08:02;;;;;;;;;;;;;;;26.81;44.03;93893.03;5028215;28;7241;-62
2023/05/11 13:10:28;;;;;;;;;;;;;;;26.82;44.18;93881.44;5044249;28;9016;-62
2023/05/11 13:12:55;;;;;;;;;;;;;;;26.79;43.78;93882.53;5034011;28;7104;-63
2023/05/11 13:15:23;;;;;;;;;;;;;;;26.83;44.00;93884.97;5046452;28;9923;-61
2023/05/11 13:18:02;;;;;;;;;;;;;;;26.83;43.63;93879.44;5041400;28;7285;-62
2023/05/11 13:20:34;;;;;;;;;;;;;;;26.84;43.89;93881.66;5030676;28;9109;-62
2023/05/11 13:23:14;;;;;;;;;;;;;;;26.85;44.37;93879.66;5026992;28;8268;-62
2023/05/11 13:25:55;;;;;;;;;;;;;;;26.79;44.10;93876.25;5031949;28;7307;-61
2023/05/11 13:28:25;;;;;;;;;;;;;;;26.82;43.78;93875.94;5042014;28;9597;-62
2023/05/11 13:31:02;;;;;;;;;;;;;;;26.82;44.18;93875.94;5023766;28;8772;-62
2023/05/11 13:33:33;;;;;;;;;;;;;;;26.82;44.18;93878.69;5029396;28;9382;-62
2023/05/11 13:36:18;;;;;;;;;;;;;;;26.84;43.99;93878.16;5031266;28;7054;-62
2023/05/11 13:39:05;;;;;;;;;;;;;;;26.86;43.97;93878.38;5040503;28;7237;-62
2023/05/11 13:41:55;;;;;;;;;;;;;;;26.83;43.69;93880.19;5032443;28;8402;-62
2023/05/11 13:44:41;;;;;;;;;;;;;;;26.86;43.92;93864.59;5024950;28;8229;-61
2023/05/11 13:47:10;;;;;;;;;;;;;;;26.85;43.70;93874.13;5032901;28;7034;-62
2023/05/11 13:50:06;;;;;;;;;;;;;;;26.84;43.67;93876.13;5037357;28;9444;-62
2023/05/11 13:52:32;;;;;;;;;;;;;;;26.80;44.06;93870.19;4988870;28;7031;-62
2023/05/11 13:55:29;;;;;;;;;;;;;;;26.83;44.02;93873.91;4970635;28;9130;-61
2023/05/11 13:58:08;;;;;;;;;;;;;;;26.80;44.10;93861.94;4986350;28;7272;-61
2023/05/11 14:00:43;;;;;;;;;;;;;;;26.82;43.94;93861.38;4962400;28;7351;-61
2023/05/11 14:03:22;;;;;;;;;;;;;;;26.79;44.26;93851.44;4970112;28;7245;-62
2023/05/11 14:05:57;;;;;;;;;;;;;;;26.81;44.26;93857.16;4981577;28;7031;-61
2023/05/11 14:08:34;;;;;;;;;;;;;;;26.81;44.12;93848.88;4967022;28;7330;-62
2023/05/11 14:11:10;;;;;;;;;;;;;;;26.80;43.89;93856.41;4979763;28;9298;-61
2023/05/11 14:13:55;;;;;;;;;;;;;;;26.80;43.84;93852.91;4966262;28;7871;-62
2023/05/11 14:16:34;;;;;;;;;;;;;;;26.83;44.50;93860.13;4969080;28;9022;-61